sensor_id;sensor_type;location;lat;lon;timestamp;P1;durP1;ratioP1;P2;durP2;ratioP2
56567;SDS011;42456;49.956;20.004;2023-04-29T00:01:06;19.40;;;9.80;;
56567;SDS011;42456;49.956;20.004;2023-04-29T00:03:33;18.20;;;9.90;;
56567;SDS011;42456;49.956;20.004;2023-04-29T00:06:00;19.30;;;9.90;;
56567;SDS011;42456;49.956;20.004;2023-04-29T00:08:28;19.60;;;9.80;;
56567;SDS011;42456;49.956;20.004;2023-04-29T00:10:55;17.60;;;9.30;;
56567;SDS011;42456;49.956;20.004;2023-04-29T00:13:22;20.20;;;9.60;;
56567;SDS011;42456;49.956;20.004;2023-04-29T00:15:48;19.00;;;9.40;;
56567;SDS011;42456;49.956;20.004;2023-04-29T00:18:16;17.80;;;8.60;;
56567;SDS011;42456;49.956;20.004;2023-04-29T00:20:43;17.60;;;8.90;;
56567;SDS011;42456;49.956;20.004;2023-04-29T00:23:09;20.50;;;10.00;;
56567;SDS011;42456;49.956;20.004;2023-04-29T00:25:37;19.50;;;9.20;;
56567;SDS011;42456;49.956;20.004;2023-04-29T00:28:04;17.30;;;8.60;;
56567;SDS011;42456;49.956;20.004;2023-04-29T00:30:31;19.90;;;9.10;;
56567;SDS011;42456;49.956;20.004;2023-04-29T00:33:01;17.30;;;9.10;;
56567;SDS011;42456;49.956;20.004;2023-04-29T00:35:29;19.40;;;9.60;;
56567;SDS011;42456;49.956;20.004;2023-04-29T00:37:56;18.60;;;9.50;;
56567;SDS011;42456;49.956;20.004;2023-04-29T00:40:23;16.00;;;8.60;;
56567;SDS011;42456;49.956;20.004;2023-04-29T00:42:50;18.20;;;8.50;;
56567;SDS011;42456;49.956;20.004;2023-04-29T00:45:17;18.10;;;8.40;;
56567;SDS011;42456;49.956;20.004;2023-04-29T00:47:44;21.50;;;10.00;;
56567;SDS011;42456;49.956;20.004;2023-04-29T00:50:11;18.90;;;8.50;;
56567;SDS011;42456;49.956;20.004;2023-04-29T00:52:37;18.70;;;9.40;;
56567;SDS011;42456;49.956;20.004;2023-04-29T00:55:05;15.50;;;7.60;;
56567;SDS011;42456;49.956;20.004;2023-04-29T00:57:34;15.70;;;8.00;;
56567;SDS011;42456;49.956;20.004;2023-04-29T01:00:01;16.10;;;8.10;;
56567;SDS011;42456;49.956;20.004;2023-04-29T01:02:30;17.40;;;8.60;;
56567;SDS011;42456;49.956;20.004;2023-04-29T01:04:57;16.10;;;8.00;;
56567;SDS011;42456;49.956;20.004;2023-04-29T01:07:29;16.40;;;7.70;;
56567;SDS011;42456;49.956;20.004;2023-04-29T01:15:43;14.80;;;7.20;;
56567;SDS011;42456;49.956;20.004;2023-04-29T01:20:51;17.70;;;7.90;;
56567;SDS011;42456;49.956;20.004;2023-04-29T01:23:19;15.60;;;8.60;;
56567;SDS011;42456;49.956;20.004;2023-04-29T01:25:45;15.10;;;7.70;;
56567;SDS011;42456;49.956;20.004;2023-04-29T01:33:55;14.60;;;7.60;;
56567;SDS011;42456;49.956;20.004;2023-04-29T01:36:32;15.20;;;7.30;;
56567;SDS011;42456;49.956;20.004;2023-04-29T01:39:13;15.20;;;7.60;;
56567;SDS011;42456;49.956;20.004;2023-04-29T01:41:50;14.90;;;7.80;;
56567;SDS011;42456;49.956;20.004;2023-04-29T01:44:26;14.30;;;7.80;;
56567;SDS011;42456;49.956;20.004;2023-04-29T01:46:54;13.80;;;7.30;;
56567;SDS011;42456;49.956;20.004;2023-04-29T01:49:26;15.90;;;8.00;;
56567;SDS011;42456;49.956;20.004;2023-04-29T01:51:53;16.70;;;7.60;;
56567;SDS011;42456;49.956;20.004;2023-04-29T01:54:21;13.70;;;7.60;;
56567;SDS011;42456;49.956;20.004;2023-04-29T01:56:48;17.50;;;8.20;;
56567;SDS011;42456;49.956;20.004;2023-04-29T01:59:15;15.70;;;7.90;;
56567;SDS011;42456;49.956;20.004;2023-04-29T02:01:42;15.20;;;8.20;;
56567;SDS011;42456;49.956;20.004;2023-04-29T02:04:09;16.90;;;8.30;;
56567;SDS011;42456;49.956;20.004;2023-04-29T02:06:36;15.50;;;7.50;;
56567;SDS011;42456;49.956;20.004;2023-04-29T02:09:03;15.80;;;8.30;;
56567;SDS011;42456;49.956;20.004;2023-04-29T02:11:30;18.60;;;8.80;;
56567;SDS011;42456;49.956;20.004;2023-04-29T02:13:57;16.00;;;8.30;;
56567;SDS011;42456;49.956;20.004;2023-04-29T02:16:24;15.80;;;7.60;;
56567;SDS011;42456;49.956;20.004;2023-04-29T02:18:51;15.00;;;7.40;;
56567;SDS011;42456;49.956;20.004;2023-04-29T02:21:18;15.10;;;7.80;;
56567;SDS011;42456;49.956;20.004;2023-04-29T02:23:45;17.50;;;8.20;;
56567;SDS011;42456;49.956;20.004;2023-04-29T02:26:12;16.80;;;8.10;;
56567;SDS011;42456;49.956;20.004;2023-04-29T02:28:40;14.70;;;8.00;;
56567;SDS011;42456;49.956;20.004;2023-04-29T02:31:07;15.40;;;8.20;;
56567;SDS011;42456;49.956;20.004;2023-04-29T02:33:34;16.50;;;8.00;;
56567;SDS011;42456;49.956;20.004;2023-04-29T02:36:01;15.50;;;7.80;;
56567;SDS011;42456;49.956;20.004;2023-04-29T02:38:29;16.90;;;8.10;;
56567;SDS011;42456;49.956;20.004;2023-04-29T02:40:56;15.10;;;7.70;;
56567;SDS011;42456;49.956;20.004;2023-04-29T02:43:24;15.70;;;7.90;;
56567;SDS011;42456;49.956;20.004;2023-04-29T02:46:02;12.70;;;7.30;;
56567;SDS011;42456;49.956;20.004;2023-04-29T02:48:30;15.50;;;7.80;;
56567;SDS011;42456;49.956;20.004;2023-04-29T02:50:57;15.10;;;8.30;;
56567;SDS011;42456;49.956;20.004;2023-04-29T02:53:23;12.40;;;6.90;;
56567;SDS011;42456;49.956;20.004;2023-04-29T02:55:50;14.30;;;7.50;;
56567;SDS011;42456;49.956;20.004;2023-04-29T02:58:17;15.40;;;7.10;;
56567;SDS011;42456;49.956;20.004;2023-04-29T03:00:44;14.40;;;7.50;;
56567;SDS011;42456;49.956;20.004;2023-04-29T03:03:11;15.10;;;8.00;;
56567;SDS011;42456;49.956;20.004;2023-04-29T03:05:38;14.50;;;7.90;;
56567;SDS011;42456;49.956;20.004;2023-04-29T03:08:06;16.80;;;7.50;;
56567;SDS011;42456;49.956;20.004;2023-04-29T03:10:33;13.00;;;7.20;;
56567;SDS011;42456;49.956;20.004;2023-04-29T03:13:00;14.40;;;7.60;;
56567;SDS011;42456;49.956;20.004;2023-04-29T03:15:27;14.70;;;7.40;;
56567;SDS011;42456;49.956;20.004;2023-04-29T03:17:54;14.10;;;7.40;;
56567;SDS011;42456;49.956;20.004;2023-04-29T03:20:21;14.60;;;7.20;;
56567;SDS011;42456;49.956;20.004;2023-04-29T03:22:48;14.50;;;7.30;;
56567;SDS011;42456;49.956;20.004;2023-04-29T03:25:15;14.00;;;7.30;;
56567;SDS011;42456;49.956;20.004;2023-04-29T03:27:42;13.60;;;7.60;;
56567;SDS011;42456;49.956;20.004;2023-04-29T03:30:09;16.60;;;7.00;;
56567;SDS011;42456;49.956;20.004;2023-04-29T03:32:36;13.30;;;7.10;;
56567;SDS011;42456;49.956;20.004;2023-04-29T03:35:03;14.40;;;7.40;;
56567;SDS011;42456;49.956;20.004;2023-04-29T03:37:31;14.90;;;8.10;;
56567;SDS011;42456;49.956;20.004;2023-04-29T03:39:58;15.80;;;7.80;;
56567;SDS011;42456;49.956;20.004;2023-04-29T03:42:36;15.50;;;7.10;;
56567;SDS011;42456;49.956;20.004;2023-04-29T03:45:04;14.00;;;7.10;;
56567;SDS011;42456;49.956;20.004;2023-04-29T03:47:32;14.10;;;7.20;;
56567;SDS011;42456;49.956;20.004;2023-04-29T03:49:59;13.20;;;7.20;;
56567;SDS011;42456;49.956;20.004;2023-04-29T03:52:26;16.00;;;7.80;;
56567;SDS011;42456;49.956;20.004;2023-04-29T03:54:54;14.60;;;8.40;;
56567;SDS011;42456;49.956;20.004;2023-04-29T03:57:21;13.70;;;7.50;;
56567;SDS011;42456;49.956;20.004;2023-04-29T03:59:48;12.50;;;7.10;;
56567;SDS011;42456;49.956;20.004;2023-04-29T04:02:16;12.70;;;6.80;;
56567;SDS011;42456;49.956;20.004;2023-04-29T04:04:43;14.10;;;7.40;;
56567;SDS011;42456;49.956;20.004;2023-04-29T04:07:11;12.70;;;6.60;;
56567;SDS011;42456;49.956;20.004;2023-04-29T04:09:38;13.30;;;6.50;;
56567;SDS011;42456;49.956;20.004;2023-04-29T04:12:05;14.50;;;7.10;;
56567;SDS011;42456;49.956;20.004;2023-04-29T04:14:32;14.20;;;6.20;;
56567;SDS011;42456;49.956;20.004;2023-04-29T04:16:59;13.00;;;7.10;;
56567;SDS011;42456;49.956;20.004;2023-04-29T04:19:28;13.50;;;7.20;;
56567;SDS011;42456;49.956;20.004;2023-04-29T04:21:56;10.00;;;5.80;;
56567;SDS011;42456;49.956;20.004;2023-04-29T04:24:23;14.90;;;6.50;;
56567;SDS011;42456;49.956;20.004;2023-04-29T04:27:10;11.40;;;5.90;;
56567;SDS011;42456;49.956;20.004;2023-04-29T04:29:37;9.10;;;5.20;;
56567;SDS011;42456;49.956;20.004;2023-04-29T04:32:04;9.00;;;5.00;;
56567;SDS011;42456;49.956;20.004;2023-04-29T04:34:32;9.20;;;5.10;;
56567;SDS011;42456;49.956;20.004;2023-04-29T04:36:59;10.60;;;5.20;;
56567;SDS011;42456;49.956;20.004;2023-04-29T04:39:25;7.70;;;4.60;;
56567;SDS011;42456;49.956;20.004;2023-04-29T04:41:52;10.30;;;5.20;;
56567;SDS011;42456;49.956;20.004;2023-04-29T04:44:20;10.50;;;5.10;;
56567;SDS011;42456;49.956;20.004;2023-04-29T04:46:47;9.70;;;5.10;;
56567;SDS011;42456;49.956;20.004;2023-04-29T04:49:13;8.80;;;5.00;;
56567;SDS011;42456;49.956;20.004;2023-04-29T04:51:43;9.90;;;5.00;;
56567;SDS011;42456;49.956;20.004;2023-04-29T04:54:11;8.30;;;4.70;;
56567;SDS011;42456;49.956;20.004;2023-04-29T04:56:37;10.40;;;5.00;;
56567;SDS011;42456;49.956;20.004;2023-04-29T04:59:04;9.60;;;4.90;;
56567;SDS011;42456;49.956;20.004;2023-04-29T05:01:32;8.70;;;4.90;;
56567;SDS011;42456;49.956;20.004;2023-04-29T05:03:59;9.10;;;5.10;;
56567;SDS011;42456;49.956;20.004;2023-04-29T05:06:28;10.10;;;5.00;;
56567;SDS011;42456;49.956;20.004;2023-04-29T05:08:55;10.20;;;5.40;;
56567;SDS011;42456;49.956;20.004;2023-04-29T05:11:22;9.90;;;5.60;;
56567;SDS011;42456;49.956;20.004;2023-04-29T05:13:49;8.90;;;4.90;;
56567;SDS011;42456;49.956;20.004;2023-04-29T05:16:15;10.30;;;5.50;;
56567;SDS011;42456;49.956;20.004;2023-04-29T05:18:43;7.40;;;4.90;;
56567;SDS011;42456;49.956;20.004;2023-04-29T05:21:11;8.30;;;5.10;;
56567;SDS011;42456;49.956;20.004;2023-04-29T05:23:40;11.40;;;6.10;;
56567;SDS011;42456;49.956;20.004;2023-04-29T05:26:21;10.40;;;5.10;;
56567;SDS011;42456;49.956;20.004;2023-04-29T05:28:48;12.70;;;5.70;;
56567;SDS011;42456;49.956;20.004;2023-04-29T05:31:15;10.60;;;5.60;;
56567;SDS011;42456;49.956;20.004;2023-04-29T05:33:45;9.60;;;5.10;;
56567;SDS011;42456;49.956;20.004;2023-04-29T05:36:15;10.10;;;5.30;;
56567;SDS011;42456;49.956;20.004;2023-04-29T05:39:09;11.30;;;5.50;;
56567;SDS011;42456;49.956;20.004;2023-04-29T05:41:50;11.30;;;4.80;;
56567;SDS011;42456;49.956;20.004;2023-04-29T05:45:54;10.50;;;4.90;;
56567;SDS011;42456;49.956;20.004;2023-04-29T05:48:21;8.90;;;5.00;;
56567;SDS011;42456;49.956;20.004;2023-04-29T05:50:49;8.60;;;4.80;;
56567;SDS011;42456;49.956;20.004;2023-04-29T05:53:16;10.30;;;5.00;;
56567;SDS011;42456;49.956;20.004;2023-04-29T05:55:43;8.40;;;4.90;;
56567;SDS011;42456;49.956;20.004;2023-04-29T05:58:13;9.10;;;5.00;;
56567;SDS011;42456;49.956;20.004;2023-04-29T06:00:41;7.00;;;4.90;;
56567;SDS011;42456;49.956;20.004;2023-04-29T06:03:09;8.80;;;5.30;;
56567;SDS011;42456;49.956;20.004;2023-04-29T06:05:38;10.70;;;5.50;;
56567;SDS011;42456;49.956;20.004;2023-04-29T06:08:05;8.70;;;4.90;;
56567;SDS011;42456;49.956;20.004;2023-04-29T06:10:32;7.60;;;4.80;;
56567;SDS011;42456;49.956;20.004;2023-04-29T06:13:00;9.40;;;4.90;;
56567;SDS011;42456;49.956;20.004;2023-04-29T06:15:27;9.60;;;4.50;;
56567;SDS011;42456;49.956;20.004;2023-04-29T06:17:54;8.60;;;4.60;;
56567;SDS011;42456;49.956;20.004;2023-04-29T06:20:21;9.50;;;4.70;;
56567;SDS011;42456;49.956;20.004;2023-04-29T06:22:48;9.10;;;5.40;;
56567;SDS011;42456;49.956;20.004;2023-04-29T06:25:14;8.50;;;4.70;;
56567;SDS011;42456;49.956;20.004;2023-04-29T06:27:42;9.70;;;4.80;;
56567;SDS011;42456;49.956;20.004;2023-04-29T06:30:09;10.90;;;5.30;;
56567;SDS011;42456;49.956;20.004;2023-04-29T06:32:37;8.90;;;4.80;;
56567;SDS011;42456;49.956;20.004;2023-04-29T06:35:05;8.00;;;4.80;;
56567;SDS011;42456;49.956;20.004;2023-04-29T06:37:33;8.50;;;5.10;;
56567;SDS011;42456;49.956;20.004;2023-04-29T06:40:03;8.50;;;4.60;;
56567;SDS011;42456;49.956;20.004;2023-04-29T06:42:30;8.50;;;5.10;;
56567;SDS011;42456;49.956;20.004;2023-04-29T06:44:57;9.00;;;4.50;;
56567;SDS011;42456;49.956;20.004;2023-04-29T06:47:25;34.40;;;22.30;;
56567;SDS011;42456;49.956;20.004;2023-04-29T06:49:52;14.10;;;7.50;;
56567;SDS011;42456;49.956;20.004;2023-04-29T06:52:21;10.60;;;5.80;;
56567;SDS011;42456;49.956;20.004;2023-04-29T06:54:48;10.20;;;5.50;;
56567;SDS011;42456;49.956;20.004;2023-04-29T06:57:14;10.30;;;5.40;;
56567;SDS011;42456;49.956;20.004;2023-04-29T06:59:41;11.40;;;5.80;;
56567;SDS011;42456;49.956;20.004;2023-04-29T07:02:08;11.70;;;5.80;;
56567;SDS011;42456;49.956;20.004;2023-04-29T07:04:35;11.80;;;5.20;;
56567;SDS011;42456;49.956;20.004;2023-04-29T07:07:03;9.30;;;5.10;;
56567;SDS011;42456;49.956;20.004;2023-04-29T07:09:29;13.00;;;5.80;;
56567;SDS011;42456;49.956;20.004;2023-04-29T07:11:57;10.90;;;6.00;;
56567;SDS011;42456;49.956;20.004;2023-04-29T07:14:23;11.30;;;5.60;;
56567;SDS011;42456;49.956;20.004;2023-04-29T07:16:53;11.90;;;5.50;;
56567;SDS011;42456;49.956;20.004;2023-04-29T07:19:21;11.90;;;5.90;;
56567;SDS011;42456;49.956;20.004;2023-04-29T07:21:47;11.30;;;5.50;;
56567;SDS011;42456;49.956;20.004;2023-04-29T07:24:15;8.40;;;5.30;;
56567;SDS011;42456;49.956;20.004;2023-04-29T07:26:42;11.90;;;5.40;;
56567;SDS011;42456;49.956;20.004;2023-04-29T07:29:14;10.80;;;5.40;;
56567;SDS011;42456;49.956;20.004;2023-04-29T07:31:41;8.60;;;5.40;;
56567;SDS011;42456;49.956;20.004;2023-04-29T07:34:08;12.10;;;5.90;;
56567;SDS011;42456;49.956;20.004;2023-04-29T07:36:35;9.00;;;5.10;;
56567;SDS011;42456;49.956;20.004;2023-04-29T07:39:02;10.70;;;5.40;;
56567;SDS011;42456;49.956;20.004;2023-04-29T07:41:29;8.30;;;5.10;;
56567;SDS011;42456;49.956;20.004;2023-04-29T07:43:56;10.10;;;4.90;;
56567;SDS011;42456;49.956;20.004;2023-04-29T07:46:23;9.70;;;5.40;;
56567;SDS011;42456;49.956;20.004;2023-04-29T07:48:50;11.60;;;5.40;;
56567;SDS011;42456;49.956;20.004;2023-04-29T07:51:18;8.20;;;4.80;;
56567;SDS011;42456;49.956;20.004;2023-04-29T07:53:45;12.10;;;5.60;;
56567;SDS011;42456;49.956;20.004;2023-04-29T07:56:12;11.80;;;5.60;;
56567;SDS011;42456;49.956;20.004;2023-04-29T07:58:39;7.60;;;4.70;;
56567;SDS011;42456;49.956;20.004;2023-04-29T08:01:06;8.90;;;5.40;;
56567;SDS011;42456;49.956;20.004;2023-04-29T08:03:37;11.70;;;5.10;;
56567;SDS011;42456;49.956;20.004;2023-04-29T08:06:07;11.10;;;5.00;;
56567;SDS011;42456;49.956;20.004;2023-04-29T08:08:34;11.30;;;5.10;;
56567;SDS011;42456;49.956;20.004;2023-04-29T08:11:01;9.50;;;5.10;;
56567;SDS011;42456;49.956;20.004;2023-04-29T08:13:29;10.50;;;5.50;;
56567;SDS011;42456;49.956;20.004;2023-04-29T08:15:55;11.30;;;5.80;;
56567;SDS011;42456;49.956;20.004;2023-04-29T08:18:23;10.10;;;5.80;;
56567;SDS011;42456;49.956;20.004;2023-04-29T08:20:49;11.00;;;5.50;;
56567;SDS011;42456;49.956;20.004;2023-04-29T08:23:16;10.70;;;5.50;;
56567;SDS011;42456;49.956;20.004;2023-04-29T08:25:43;9.70;;;4.90;;
56567;SDS011;42456;49.956;20.004;2023-04-29T08:28:11;7.00;;;4.50;;
56567;SDS011;42456;49.956;20.004;2023-04-29T08:30:39;7.20;;;4.20;;
56567;SDS011;42456;49.956;20.004;2023-04-29T08:33:07;9.10;;;4.60;;
56567;SDS011;42456;49.956;20.004;2023-04-29T08:35:34;8.80;;;4.40;;
56567;SDS011;42456;49.956;20.004;2023-04-29T08:38:04;11.80;;;5.10;;
56567;SDS011;42456;49.956;20.004;2023-04-29T08:40:33;8.00;;;4.30;;
56567;SDS011;42456;49.956;20.004;2023-04-29T08:43:04;10.20;;;4.70;;
56567;SDS011;42456;49.956;20.004;2023-04-29T08:45:31;10.20;;;4.90;;
56567;SDS011;42456;49.956;20.004;2023-04-29T08:47:59;11.30;;;5.40;;
56567;SDS011;42456;49.956;20.004;2023-04-29T08:50:28;9.50;;;5.00;;
56567;SDS011;42456;49.956;20.004;2023-04-29T08:52:57;8.50;;;4.50;;
56567;SDS011;42456;49.956;20.004;2023-04-29T08:55:24;17.00;;;7.00;;
56567;SDS011;42456;49.956;20.004;2023-04-29T08:57:51;12.00;;;5.90;;
56567;SDS011;42456;49.956;20.004;2023-04-29T09:00:22;11.00;;;5.50;;
56567;SDS011;42456;49.956;20.004;2023-04-29T09:02:50;12.90;;;5.00;;
56567;SDS011;42456;49.956;20.004;2023-04-29T09:05:21;10.50;;;5.30;;
56567;SDS011;42456;49.956;20.004;2023-04-29T09:07:50;9.80;;;5.30;;
56567;SDS011;42456;49.956;20.004;2023-04-29T09:10:18;10.90;;;5.50;;
56567;SDS011;42456;49.956;20.004;2023-04-29T09:12:45;8.90;;;4.80;;
56567;SDS011;42456;49.956;20.004;2023-04-29T09:15:12;10.00;;;4.90;;
56567;SDS011;42456;49.956;20.004;2023-04-29T09:22:48;9.90;;;4.80;;
56567;SDS011;42456;49.956;20.004;2023-04-29T09:25:16;9.40;;;4.70;;
56567;SDS011;42456;49.956;20.004;2023-04-29T09:27:43;9.80;;;4.70;;
56567;SDS011;42456;49.956;20.004;2023-04-29T09:30:10;11.10;;;5.10;;
56567;SDS011;42456;49.956;20.004;2023-04-29T09:32:38;8.50;;;4.80;;
56567;SDS011;42456;49.956;20.004;2023-04-29T09:37:49;8.10;;;4.90;;
56567;SDS011;42456;49.956;20.004;2023-04-29T09:43:13;8.60;;;5.10;;
56567;SDS011;42456;49.956;20.004;2023-04-29T09:45:47;6.60;;;4.30;;
56567;SDS011;42456;49.956;20.004;2023-04-29T09:48:17;7.60;;;4.30;;
56567;SDS011;42456;49.956;20.004;2023-04-29T09:50:44;8.60;;;4.50;;
56567;SDS011;42456;49.956;20.004;2023-04-29T09:53:28;6.60;;;4.40;;
56567;SDS011;42456;49.956;20.004;2023-04-29T09:56:02;9.50;;;4.80;;
56567;SDS011;42456;49.956;20.004;2023-04-29T09:59:24;7.10;;;4.20;;
56567;SDS011;42456;49.956;20.004;2023-04-29T10:01:55;10.00;;;5.00;;
56567;SDS011;42456;49.956;20.004;2023-04-29T10:04:24;11.10;;;5.20;;
56567;SDS011;42456;49.956;20.004;2023-04-29T10:06:53;11.90;;;5.30;;
56567;SDS011;42456;49.956;20.004;2023-04-29T10:09:21;10.70;;;4.80;;
56567;SDS011;42456;49.956;20.004;2023-04-29T10:12:10;9.40;;;5.00;;
56567;SDS011;42456;49.956;20.004;2023-04-29T10:14:42;8.50;;;4.60;;
56567;SDS011;42456;49.956;20.004;2023-04-29T10:20:28;8.60;;;4.60;;
56567;SDS011;42456;49.956;20.004;2023-04-29T10:23:32;6.60;;;4.20;;
56567;SDS011;42456;49.956;20.004;2023-04-29T10:26:02;7.80;;;4.50;;
56567;SDS011;42456;49.956;20.004;2023-04-29T10:28:31;10.30;;;4.40;;
56567;SDS011;42456;49.956;20.004;2023-04-29T10:31:01;7.90;;;4.20;;
56567;SDS011;42456;49.956;20.004;2023-04-29T10:33:32;8.90;;;4.00;;
56567;SDS011;42456;49.956;20.004;2023-04-29T10:36:01;8.70;;;4.90;;
56567;SDS011;42456;49.956;20.004;2023-04-29T10:38:35;6.50;;;4.00;;
56567;SDS011;42456;49.956;20.004;2023-04-29T10:41:08;7.90;;;4.30;;
56567;SDS011;42456;49.956;20.004;2023-04-29T10:43:42;7.70;;;4.40;;
56567;SDS011;42456;49.956;20.004;2023-04-29T10:46:16;9.40;;;4.80;;
56567;SDS011;42456;49.956;20.004;2023-04-29T10:48:47;8.20;;;4.60;;
56567;SDS011;42456;49.956;20.004;2023-04-29T10:51:28;8.90;;;4.80;;
56567;SDS011;42456;49.956;20.004;2023-04-29T10:54:00;5.70;;;4.10;;
56567;SDS011;42456;49.956;20.004;2023-04-29T10:56:57;9.30;;;4.10;;
56567;SDS011;42456;49.956;20.004;2023-04-29T11:01:54;7.50;;;4.40;;
56567;SDS011;42456;49.956;20.004;2023-04-29T11:04:21;7.80;;;4.40;;
56567;SDS011;42456;49.956;20.004;2023-04-29T11:06:52;7.60;;;4.20;;
56567;SDS011;42456;49.956;20.004;2023-04-29T11:09:24;8.90;;;4.10;;
56567;SDS011;42456;49.956;20.004;2023-04-29T11:12:02;5.50;;;3.90;;
56567;SDS011;42456;49.956;20.004;2023-04-29T11:17:12;8.30;;;3.60;;
56567;SDS011;42456;49.956;20.004;2023-04-29T11:24:49;6.50;;;4.30;;
56567;SDS011;42456;49.956;20.004;2023-04-29T11:27:36;6.60;;;4.00;;
56567;SDS011;42456;49.956;20.004;2023-04-29T11:30:08;7.30;;;4.20;;
56567;SDS011;42456;49.956;20.004;2023-04-29T11:32:37;9.40;;;4.30;;
56567;SDS011;42456;49.956;20.004;2023-04-29T11:37:38;8.70;;;4.70;;
56567;SDS011;42456;49.956;20.004;2023-04-29T11:40:06;8.30;;;4.70;;
56567;SDS011;42456;49.956;20.004;2023-04-29T11:42:35;7.80;;;4.30;;
56567;SDS011;42456;49.956;20.004;2023-04-29T11:45:08;8.10;;;4.40;;
56567;SDS011;42456;49.956;20.004;2023-04-29T11:47:35;10.30;;;4.70;;
56567;SDS011;42456;49.956;20.004;2023-04-29T11:50:03;7.20;;;4.60;;
56567;SDS011;42456;49.956;20.004;2023-04-29T11:52:36;8.20;;;4.50;;
56567;SDS011;42456;49.956;20.004;2023-04-29T11:55:08;11.40;;;4.00;;
56567;SDS011;42456;49.956;20.004;2023-04-29T11:57:37;7.20;;;4.10;;
56567;SDS011;42456;49.956;20.004;2023-04-29T12:00:09;10.30;;;5.60;;
56567;SDS011;42456;49.956;20.004;2023-04-29T12:02:42;8.10;;;4.50;;
56567;SDS011;42456;49.956;20.004;2023-04-29T12:05:12;7.40;;;4.10;;
56567;SDS011;42456;49.956;20.004;2023-04-29T12:07:41;8.00;;;4.50;;
56567;SDS011;42456;49.956;20.004;2023-04-29T12:10:09;11.30;;;5.20;;
56567;SDS011;42456;49.956;20.004;2023-04-29T12:12:37;9.10;;;4.30;;
56567;SDS011;42456;49.956;20.004;2023-04-29T12:15:07;7.00;;;4.20;;
56567;SDS011;42456;49.956;20.004;2023-04-29T12:17:38;7.10;;;4.10;;
56567;SDS011;42456;49.956;20.004;2023-04-29T12:20:06;7.80;;;4.00;;
56567;SDS011;42456;49.956;20.004;2023-04-29T12:22:36;8.50;;;3.90;;
56567;SDS011;42456;49.956;20.004;2023-04-29T12:25:03;7.10;;;4.20;;
56567;SDS011;42456;49.956;20.004;2023-04-29T12:27:31;7.40;;;4.10;;
56567;SDS011;42456;49.956;20.004;2023-04-29T12:29:59;9.40;;;5.30;;
56567;SDS011;42456;49.956;20.004;2023-04-29T12:32:26;11.70;;;6.70;;
56567;SDS011;42456;49.956;20.004;2023-04-29T12:34:53;9.60;;;5.00;;
56567;SDS011;42456;49.956;20.004;2023-04-29T12:37:21;11.30;;;6.60;;
56567;SDS011;42456;49.956;20.004;2023-04-29T12:39:53;8.30;;;4.70;;
56567;SDS011;42456;49.956;20.004;2023-04-29T12:42:21;5.20;;;4.00;;
56567;SDS011;42456;49.956;20.004;2023-04-29T12:44:48;6.10;;;3.60;;
56567;SDS011;42456;49.956;20.004;2023-04-29T12:47:15;6.90;;;3.60;;
56567;SDS011;42456;49.956;20.004;2023-04-29T12:49:45;7.20;;;4.00;;
56567;SDS011;42456;49.956;20.004;2023-04-29T12:52:13;8.30;;;4.30;;
56567;SDS011;42456;49.956;20.004;2023-04-29T12:54:40;10.30;;;4.30;;
56567;SDS011;42456;49.956;20.004;2023-04-29T12:57:18;11.10;;;4.30;;
56567;SDS011;42456;49.956;20.004;2023-04-29T13:00:03;9.60;;;4.80;;
56567;SDS011;42456;49.956;20.004;2023-04-29T13:02:30;8.80;;;4.90;;
56567;SDS011;42456;49.956;20.004;2023-04-29T13:05:04;6.60;;;4.10;;
56567;SDS011;42456;49.956;20.004;2023-04-29T13:07:48;6.40;;;3.90;;
56567;SDS011;42456;49.956;20.004;2023-04-29T13:10:33;6.30;;;3.70;;
56567;SDS011;42456;49.956;20.004;2023-04-29T13:14:07;5.70;;;3.80;;
56567;SDS011;42456;49.956;20.004;2023-04-29T13:17:46;8.70;;;4.30;;
56567;SDS011;42456;49.956;20.004;2023-04-29T13:20:18;9.60;;;4.40;;
56567;SDS011;42456;49.956;20.004;2023-04-29T13:22:45;9.60;;;4.70;;
56567;SDS011;42456;49.956;20.004;2023-04-29T13:25:12;8.00;;;4.50;;
56567;SDS011;42456;49.956;20.004;2023-04-29T13:27:40;8.70;;;4.60;;
56567;SDS011;42456;49.956;20.004;2023-04-29T13:30:07;7.10;;;4.60;;
56567;SDS011;42456;49.956;20.004;2023-04-29T13:32:34;7.10;;;4.20;;
56567;SDS011;42456;49.956;20.004;2023-04-29T13:35:05;11.00;;;4.50;;
56567;SDS011;42456;49.956;20.004;2023-04-29T13:37:33;8.20;;;4.70;;
56567;SDS011;42456;49.956;20.004;2023-04-29T13:40:00;10.40;;;4.50;;
56567;SDS011;42456;49.956;20.004;2023-04-29T13:42:27;10.40;;;5.20;;
56567;SDS011;42456;49.956;20.004;2023-04-29T13:44:54;9.90;;;5.70;;
56567;SDS011;42456;49.956;20.004;2023-04-29T13:47:23;10.40;;;4.90;;
56567;SDS011;42456;49.956;20.004;2023-04-29T13:49:57;8.80;;;4.80;;
56567;SDS011;42456;49.956;20.004;2023-04-29T13:52:44;9.40;;;5.20;;
56567;SDS011;42456;49.956;20.004;2023-04-29T13:55:14;11.70;;;5.80;;
56567;SDS011;42456;49.956;20.004;2023-04-29T13:58:01;12.00;;;5.80;;
56567;SDS011;42456;49.956;20.004;2023-04-29T14:00:31;11.20;;;6.00;;
56567;SDS011;42456;49.956;20.004;2023-04-29T14:03:02;13.70;;;6.20;;
56567;SDS011;42456;49.956;20.004;2023-04-29T14:05:33;12.50;;;6.50;;
56567;SDS011;42456;49.956;20.004;2023-04-29T14:08:01;14.70;;;6.80;;
56567;SDS011;42456;49.956;20.004;2023-04-29T14:10:27;13.10;;;6.80;;
56567;SDS011;42456;49.956;20.004;2023-04-29T14:12:55;13.50;;;7.00;;
56567;SDS011;42456;49.956;20.004;2023-04-29T14:15:22;15.70;;;7.60;;
56567;SDS011;42456;49.956;20.004;2023-04-29T14:17:49;14.90;;;7.40;;
56567;SDS011;42456;49.956;20.004;2023-04-29T14:20:16;14.50;;;7.40;;
56567;SDS011;42456;49.956;20.004;2023-04-29T14:22:42;16.80;;;8.30;;
56567;SDS011;42456;49.956;20.004;2023-04-29T14:25:09;17.00;;;8.70;;
56567;SDS011;42456;49.956;20.004;2023-04-29T14:27:38;19.90;;;9.30;;
56567;SDS011;42456;49.956;20.004;2023-04-29T14:30:05;15.60;;;8.30;;
56567;SDS011;42456;49.956;20.004;2023-04-29T14:32:32;16.50;;;8.20;;
56567;SDS011;42456;49.956;20.004;2023-04-29T14:34:59;17.60;;;8.80;;
56567;SDS011;42456;49.956;20.004;2023-04-29T14:37:26;17.40;;;8.10;;
56567;SDS011;42456;49.956;20.004;2023-04-29T14:39:52;14.90;;;7.70;;
56567;SDS011;42456;49.956;20.004;2023-04-29T14:42:19;16.10;;;8.60;;
56567;SDS011;42456;49.956;20.004;2023-04-29T14:44:46;16.80;;;7.80;;
56567;SDS011;42456;49.956;20.004;2023-04-29T14:47:13;15.10;;;7.20;;
56567;SDS011;42456;49.956;20.004;2023-04-29T14:49:40;14.60;;;7.90;;
56567;SDS011;42456;49.956;20.004;2023-04-29T14:52:07;16.10;;;7.40;;
56567;SDS011;42456;49.956;20.004;2023-04-29T14:54:35;13.20;;;7.40;;
56567;SDS011;42456;49.956;20.004;2023-04-29T14:57:02;14.00;;;7.20;;
56567;SDS011;42456;49.956;20.004;2023-04-29T14:59:49;14.30;;;7.10;;
56567;SDS011;42456;49.956;20.004;2023-04-29T15:02:16;15.80;;;7.50;;
56567;SDS011;42456;49.956;20.004;2023-04-29T15:04:43;12.30;;;7.30;;
56567;SDS011;42456;49.956;20.004;2023-04-29T15:07:12;16.00;;;7.60;;
56567;SDS011;42456;49.956;20.004;2023-04-29T15:09:39;14.90;;;7.10;;
56567;SDS011;42456;49.956;20.004;2023-04-29T15:12:06;14.20;;;7.50;;
56567;SDS011;42456;49.956;20.004;2023-04-29T15:14:34;15.70;;;7.50;;
56567;SDS011;42456;49.956;20.004;2023-04-29T15:17:01;15.60;;;7.50;;
56567;SDS011;42456;49.956;20.004;2023-04-29T15:19:28;15.30;;;7.80;;
56567;SDS011;42456;49.956;20.004;2023-04-29T15:21:55;14.30;;;8.50;;